sensor_id;sensor_type;location;lat;lon;timestamp;P1;durP1;ratioP1;P2;durP2;ratioP2
21148;SDS011;10732;51.472;6.466;2024-02-21T00:00:14;30.00;;;14.90;;
21148;SDS011;10732;51.472;6.466;2024-02-21T00:02:41;34.83;;;15.20;;
21148;SDS011;10732;51.472;6.466;2024-02-21T00:05:06;31.00;;;14.20;;
21148;SDS011;10732;51.472;6.466;2024-02-21T00:07:32;30.08;;;15.15;;
21148;SDS011;10732;51.472;6.466;2024-02-21T00:09:58;32.08;;;15.38;;
21148;SDS011;10732;51.472;6.466;2024-02-21T00:12:23;33.55;;;14.70;;
21148;SDS011;10732;51.472;6.466;2024-02-21T00:14:49;33.97;;;14.77;;
21148;SDS011;10732;51.472;6.466;2024-02-21T00:17:15;35.88;;;15.77;;
21148;SDS011;10732;51.472;6.466;2024-02-21T00:19:40;30.23;;;14.88;;
21148;SDS011;10732;51.472;6.466;2024-02-21T00:22:06;34.28;;;14.43;;
21148;SDS011;10732;51.472;6.466;2024-02-21T00:24:31;34.00;;;15.30;;
21148;SDS011;10732;51.472;6.466;2024-02-21T00:26:57;38.53;;;16.20;;
21148;SDS011;10732;51.472;6.466;2024-02-21T00:29:23;33.50;;;16.30;;
21148;SDS011;10732;51.472;6.466;2024-02-21T00:31:49;28.00;;;14.85;;
21148;SDS011;10732;51.472;6.466;2024-02-21T00:34:14;30.52;;;14.80;;
21148;SDS011;10732;51.472;6.466;2024-02-21T00:36:40;28.55;;;15.45;;
21148;SDS011;10732;51.472;6.466;2024-02-21T00:39:06;35.25;;;16.05;;
21148;SDS011;10732;51.472;6.466;2024-02-21T00:41:31;32.40;;;14.85;;
21148;SDS011;10732;51.472;6.466;2024-02-21T00:43:58;34.40;;;15.48;;
21148;SDS011;10732;51.472;6.466;2024-02-21T00:46:23;31.50;;;15.70;;
21148;SDS011;10732;51.472;6.466;2024-02-21T00:48:49;35.30;;;15.90;;
21148;SDS011;10732;51.472;6.466;2024-02-21T00:51:15;34.58;;;15.02;;
21148;SDS011;10732;51.472;6.466;2024-02-21T00:53:41;33.20;;;16.10;;
21148;SDS011;10732;51.472;6.466;2024-02-21T00:56:07;32.05;;;15.63;;
21148;SDS011;10732;51.472;6.466;2024-02-21T00:58:33;29.70;;;15.00;;
21148;SDS011;10732;51.472;6.466;2024-02-21T01:01:00;29.55;;;15.32;;
21148;SDS011;10732;51.472;6.466;2024-02-21T01:03:26;33.25;;;15.57;;
21148;SDS011;10732;51.472;6.466;2024-02-21T01:05:51;33.97;;;16.55;;
21148;SDS011;10732;51.472;6.466;2024-02-21T01:08:17;30.85;;;15.40;;
21148;SDS011;10732;51.472;6.466;2024-02-21T01:10:42;34.13;;;15.95;;
21148;SDS011;10732;51.472;6.466;2024-02-21T01:13:08;34.45;;;15.30;;
21148;SDS011;10732;51.472;6.466;2024-02-21T01:15:34;29.90;;;16.15;;
21148;SDS011;10732;51.472;6.466;2024-02-21T01:18:00;30.40;;;16.67;;
21148;SDS011;10732;51.472;6.466;2024-02-21T01:20:26;32.83;;;16.20;;
21148;SDS011;10732;51.472;6.466;2024-02-21T01:22:52;29.88;;;15.65;;
21148;SDS011;10732;51.472;6.466;2024-02-21T01:25:17;30.05;;;15.55;;
21148;SDS011;10732;51.472;6.466;2024-02-21T01:27:43;33.22;;;14.70;;
21148;SDS011;10732;51.472;6.466;2024-02-21T01:30:09;29.08;;;14.50;;
21148;SDS011;10732;51.472;6.466;2024-02-21T01:32:35;27.60;;;14.63;;
21148;SDS011;10732;51.472;6.466;2024-02-21T01:35:01;33.28;;;16.17;;
21148;SDS011;10732;51.472;6.466;2024-02-21T01:37:27;25.15;;;14.65;;
21148;SDS011;10732;51.472;6.466;2024-02-21T01:39:52;30.55;;;14.57;;
21148;SDS011;10732;51.472;6.466;2024-02-21T01:42:18;32.38;;;14.80;;
21148;SDS011;10732;51.472;6.466;2024-02-21T01:44:44;31.13;;;14.70;;
21148;SDS011;10732;51.472;6.466;2024-02-21T01:47:10;26.92;;;14.90;;
21148;SDS011;10732;51.472;6.466;2024-02-21T01:49:38;26.30;;;14.55;;
21148;SDS011;10732;51.472;6.466;2024-02-21T01:52:05;31.80;;;15.30;;
21148;SDS011;10732;51.472;6.466;2024-02-21T01:54:32;28.05;;;14.80;;
21148;SDS011;10732;51.472;6.466;2024-02-21T01:56:58;28.98;;;14.32;;
21148;SDS011;10732;51.472;6.466;2024-02-21T01:59:24;27.85;;;14.40;;
21148;SDS011;10732;51.472;6.466;2024-02-21T02:01:50;31.42;;;14.65;;
21148;SDS011;10732;51.472;6.466;2024-02-21T02:04:17;32.88;;;14.85;;
21148;SDS011;10732;51.472;6.466;2024-02-21T02:06:45;31.98;;;14.60;;
21148;SDS011;10732;51.472;6.466;2024-02-21T02:09:11;27.27;;;14.55;;
21148;SDS011;10732;51.472;6.466;2024-02-21T02:11:37;24.83;;;13.80;;
21148;SDS011;10732;51.472;6.466;2024-02-21T02:14:02;25.88;;;14.25;;
21148;SDS011;10732;51.472;6.466;2024-02-21T02:16:28;25.15;;;13.02;;
21148;SDS011;10732;51.472;6.466;2024-02-21T02:18:54;30.02;;;14.02;;
21148;SDS011;10732;51.472;6.466;2024-02-21T02:21:23;29.05;;;14.07;;
21148;SDS011;10732;51.472;6.466;2024-02-21T02:23:55;24.38;;;13.20;;
21148;SDS011;10732;51.472;6.466;2024-02-21T02:26:21;33.70;;;14.73;;
21148;SDS011;10732;51.472;6.466;2024-02-21T02:28:47;28.65;;;14.63;;
21148;SDS011;10732;51.472;6.466;2024-02-21T02:31:12;25.35;;;14.30;;
21148;SDS011;10732;51.472;6.466;2024-02-21T02:33:38;28.17;;;14.43;;
21148;SDS011;10732;51.472;6.466;2024-02-21T02:36:04;31.30;;;14.85;;
21148;SDS011;10732;51.472;6.466;2024-02-21T02:38:30;24.83;;;13.23;;
21148;SDS011;10732;51.472;6.466;2024-02-21T02:40:55;30.08;;;13.68;;
21148;SDS011;10732;51.472;6.466;2024-02-21T02:43:21;27.55;;;13.75;;
21148;SDS011;10732;51.472;6.466;2024-02-21T02:45:47;27.50;;;14.15;;
21148;SDS011;10732;51.472;6.466;2024-02-21T02:48:12;23.88;;;13.02;;
21148;SDS011;10732;51.472;6.466;2024-02-21T02:50:38;32.35;;;13.68;;
21148;SDS011;10732;51.472;6.466;2024-02-21T02:53:03;30.73;;;13.77;;
21148;SDS011;10732;51.472;6.466;2024-02-21T02:55:29;25.75;;;12.90;;
21148;SDS011;10732;51.472;6.466;2024-02-21T02:57:55;26.58;;;12.65;;
21148;SDS011;10732;51.472;6.466;2024-02-21T03:00:21;24.48;;;12.88;;
21148;SDS011;10732;51.472;6.466;2024-02-21T03:02:48;25.02;;;12.65;;
21148;SDS011;10732;51.472;6.466;2024-02-21T03:05:15;27.05;;;12.77;;
21148;SDS011;10732;51.472;6.466;2024-02-21T03:07:44;27.60;;;13.65;;
21148;SDS011;10732;51.472;6.466;2024-02-21T03:10:10;23.05;;;12.75;;
21148;SDS011;10732;51.472;6.466;2024-02-21T03:12:36;22.85;;;11.43;;
21148;SDS011;10732;51.472;6.466;2024-02-21T03:15:03;26.63;;;13.10;;
21148;SDS011;10732;51.472;6.466;2024-02-21T03:17:29;23.88;;;11.93;;
21148;SDS011;10732;51.472;6.466;2024-02-21T03:19:55;23.23;;;11.90;;
21148;SDS011;10732;51.472;6.466;2024-02-21T03:22:21;23.50;;;11.40;;
21148;SDS011;10732;51.472;6.466;2024-02-21T03:24:47;27.67;;;11.82;;
21148;SDS011;10732;51.472;6.466;2024-02-21T03:27:13;22.80;;;11.00;;
21148;SDS011;10732;51.472;6.466;2024-02-21T03:29:38;20.70;;;11.52;;
21148;SDS011;10732;51.472;6.466;2024-02-21T03:32:04;19.90;;;10.02;;
21148;SDS011;10732;51.472;6.466;2024-02-21T03:34:30;22.48;;;11.43;;
21148;SDS011;10732;51.472;6.466;2024-02-21T03:36:55;20.98;;;10.38;;
21148;SDS011;10732;51.472;6.466;2024-02-21T03:39:21;22.90;;;9.95;;
21148;SDS011;10732;51.472;6.466;2024-02-21T03:41:47;22.02;;;10.43;;
21148;SDS011;10732;51.472;6.466;2024-02-21T03:44:12;18.42;;;10.48;;
21148;SDS011;10732;51.472;6.466;2024-02-21T03:46:38;24.40;;;10.13;;
21148;SDS011;10732;51.472;6.466;2024-02-21T03:49:04;18.40;;;10.15;;
21148;SDS011;10732;51.472;6.466;2024-02-21T03:51:29;22.00;;;11.05;;
21148;SDS011;10732;51.472;6.466;2024-02-21T03:53:55;19.90;;;10.40;;
21148;SDS011;10732;51.472;6.466;2024-02-21T03:56:21;19.52;;;10.95;;
21148;SDS011;10732;51.472;6.466;2024-02-21T03:58:46;20.70;;;9.73;;
21148;SDS011;10732;51.472;6.466;2024-02-21T04:01:14;18.17;;;10.00;;
21148;SDS011;10732;51.472;6.466;2024-02-21T04:03:40;17.90;;;9.98;;
21148;SDS011;10732;51.472;6.466;2024-02-21T04:06:07;17.45;;;9.63;;
21148;SDS011;10732;51.472;6.466;2024-02-21T04:08:33;21.83;;;10.38;;
21148;SDS011;10732;51.472;6.466;2024-02-21T04:10:58;22.33;;;10.25;;
21148;SDS011;10732;51.472;6.466;2024-02-21T04:13:24;21.88;;;10.60;;
21148;SDS011;10732;51.472;6.466;2024-02-21T04:15:50;23.42;;;10.07;;
21148;SDS011;10732;51.472;6.466;2024-02-21T04:18:16;19.13;;;9.98;;
21148;SDS011;10732;51.472;6.466;2024-02-21T04:20:41;17.13;;;9.52;;
21148;SDS011;10732;51.472;6.466;2024-02-21T04:23:07;16.73;;;8.93;;
21148;SDS011;10732;51.472;6.466;2024-02-21T04:25:33;19.27;;;9.60;;
21148;SDS011;10732;51.472;6.466;2024-02-21T04:27:58;16.35;;;8.70;;
21148;SDS011;10732;51.472;6.466;2024-02-21T04:30:24;16.65;;;8.40;;
21148;SDS011;10732;51.472;6.466;2024-02-21T04:32:50;19.88;;;8.07;;
21148;SDS011;10732;51.472;6.466;2024-02-21T04:35:16;19.50;;;8.75;;
21148;SDS011;10732;51.472;6.466;2024-02-21T04:37:42;15.40;;;7.60;;
21148;SDS011;10732;51.472;6.466;2024-02-21T04:40:08;14.32;;;7.53;;
21148;SDS011;10732;51.472;6.466;2024-02-21T04:42:34;14.20;;;7.30;;
21148;SDS011;10732;51.472;6.466;2024-02-21T04:45:00;17.30;;;7.50;;
21148;SDS011;10732;51.472;6.466;2024-02-21T04:47:25;12.52;;;7.45;;
21148;SDS011;10732;51.472;6.466;2024-02-21T04:49:51;12.38;;;7.40;;
21148;SDS011;10732;51.472;6.466;2024-02-21T04:52:17;17.27;;;7.63;;
21148;SDS011;10732;51.472;6.466;2024-02-21T04:54:42;15.10;;;7.65;;
21148;SDS011;10732;51.472;6.466;2024-02-21T04:57:08;13.32;;;6.38;;
21148;SDS011;10732;51.472;6.466;2024-02-21T04:59:35;12.70;;;6.70;;
21148;SDS011;10732;51.472;6.466;2024-02-21T05:02:01;13.15;;;6.93;;
21148;SDS011;10732;51.472;6.466;2024-02-21T05:04:27;11.13;;;6.72;;
21148;SDS011;10732;51.472;6.466;2024-02-21T05:06:53;14.80;;;6.80;;
21148;SDS011;10732;51.472;6.466;2024-02-21T05:09:19;12.85;;;6.78;;
21148;SDS011;10732;51.472;6.466;2024-02-21T05:11:45;16.08;;;7.25;;
21148;SDS011;10732;51.472;6.466;2024-02-21T05:14:10;16.42;;;7.55;;
21148;SDS011;10732;51.472;6.466;2024-02-21T05:16:36;16.33;;;7.03;;
21148;SDS011;10732;51.472;6.466;2024-02-21T05:19:04;18.02;;;7.57;;
21148;SDS011;10732;51.472;6.466;2024-02-21T05:21:30;14.93;;;7.88;;
21148;SDS011;10732;51.472;6.466;2024-02-21T05:23:55;17.25;;;8.45;;
21148;SDS011;10732;51.472;6.466;2024-02-21T05:26:21;14.02;;;7.45;;
21148;SDS011;10732;51.472;6.466;2024-02-21T05:28:48;17.25;;;8.73;;
21148;SDS011;10732;51.472;6.466;2024-02-21T05:31:15;17.70;;;8.48;;
21148;SDS011;10732;51.472;6.466;2024-02-21T05:33:41;15.93;;;8.15;;
21148;SDS011;10732;51.472;6.466;2024-02-21T05:36:07;22.02;;;8.30;;
21148;SDS011;10732;51.472;6.466;2024-02-21T05:38:33;16.85;;;8.07;;
21148;SDS011;10732;51.472;6.466;2024-02-21T05:40:58;18.05;;;8.55;;
21148;SDS011;10732;51.472;6.466;2024-02-21T05:43:24;19.63;;;8.95;;
21148;SDS011;10732;51.472;6.466;2024-02-21T05:45:50;14.90;;;7.63;;
21148;SDS011;10732;51.472;6.466;2024-02-21T05:48:15;16.10;;;8.77;;
21148;SDS011;10732;51.472;6.466;2024-02-21T05:50:41;15.25;;;8.60;;
21148;SDS011;10732;51.472;6.466;2024-02-21T05:53:06;17.60;;;8.23;;
21148;SDS011;10732;51.472;6.466;2024-02-21T05:55:32;16.63;;;8.32;;
21148;SDS011;10732;51.472;6.466;2024-02-21T05:57:58;15.32;;;8.00;;
21148;SDS011;10732;51.472;6.466;2024-02-21T06:00:23;19.27;;;8.13;;
21148;SDS011;10732;51.472;6.466;2024-02-21T06:02:49;20.55;;;8.50;;
21148;SDS011;10732;51.472;6.466;2024-02-21T06:05:14;17.73;;;8.60;;
21148;SDS011;10732;51.472;6.466;2024-02-21T06:07:40;21.17;;;8.13;;
21148;SDS011;10732;51.472;6.466;2024-02-21T06:10:06;16.00;;;7.97;;
21148;SDS011;10732;51.472;6.466;2024-02-21T06:12:33;18.85;;;8.05;;
21148;SDS011;10732;51.472;6.466;2024-02-21T06:14:58;17.08;;;8.20;;
21148;SDS011;10732;51.472;6.466;2024-02-21T06:17:24;16.50;;;7.95;;
21148;SDS011;10732;51.472;6.466;2024-02-21T06:19:49;17.33;;;8.13;;
21148;SDS011;10732;51.472;6.466;2024-02-21T06:22:15;17.65;;;8.25;;
21148;SDS011;10732;51.472;6.466;2024-02-21T06:24:41;17.67;;;7.45;;
21148;SDS011;10732;51.472;6.466;2024-02-21T06:27:06;18.02;;;7.88;;
21148;SDS011;10732;51.472;6.466;2024-02-21T06:29:34;17.10;;;8.43;;
21148;SDS011;10732;51.472;6.466;2024-02-21T06:32:00;14.65;;;7.90;;
21148;SDS011;10732;51.472;6.466;2024-02-21T06:34:27;15.23;;;8.18;;
21148;SDS011;10732;51.472;6.466;2024-02-21T06:36:53;19.00;;;8.48;;
21148;SDS011;10732;51.472;6.466;2024-02-21T06:39:18;12.85;;;7.35;;
21148;SDS011;10732;51.472;6.466;2024-02-21T06:41:44;16.70;;;7.63;;
21148;SDS011;10732;51.472;6.466;2024-02-21T06:44:10;16.38;;;7.65;;
21148;SDS011;10732;51.472;6.466;2024-02-21T06:46:35;15.13;;;7.95;;
21148;SDS011;10732;51.472;6.466;2024-02-21T06:49:02;15.02;;;8.40;;
21148;SDS011;10732;51.472;6.466;2024-02-21T06:51:31;16.95;;;7.97;;
21148;SDS011;10732;51.472;6.466;2024-02-21T06:53:57;22.50;;;9.35;;
21148;SDS011;10732;51.472;6.466;2024-02-21T06:56:23;19.48;;;8.77;;
21148;SDS011;10732;51.472;6.466;2024-02-21T06:58:54;13.70;;;8.13;;
21148;SDS011;10732;51.472;6.466;2024-02-21T07:01:23;21.73;;;9.35;;
21148;SDS011;10732;51.472;6.466;2024-02-21T07:03:49;23.90;;;10.00;;
21148;SDS011;10732;51.472;6.466;2024-02-21T07:06:14;19.92;;;9.27;;
21148;SDS011;10732;51.472;6.466;2024-02-21T07:08:40;20.27;;;9.02;;
21148;SDS011;10732;51.472;6.466;2024-02-21T07:11:06;16.38;;;8.88;;
21148;SDS011;10732;51.472;6.466;2024-02-21T07:13:32;21.13;;;9.85;;
21148;SDS011;10732;51.472;6.466;2024-02-21T07:15:57;23.27;;;9.52;;
21148;SDS011;10732;51.472;6.466;2024-02-21T07:18:23;20.58;;;9.02;;
21148;SDS011;10732;51.472;6.466;2024-02-21T07:20:50;21.30;;;9.40;;
21148;SDS011;10732;51.472;6.466;2024-02-21T07:23:16;18.42;;;8.77;;
21148;SDS011;10732;51.472;6.466;2024-02-21T07:25:42;21.40;;;9.55;;
21148;SDS011;10732;51.472;6.466;2024-02-21T07:28:08;16.27;;;8.30;;
21148;SDS011;10732;51.472;6.466;2024-02-21T07:30:33;21.95;;;8.23;;
21148;SDS011;10732;51.472;6.466;2024-02-21T07:32:59;16.48;;;8.23;;
21148;SDS011;10732;51.472;6.466;2024-02-21T07:35:24;15.50;;;9.02;;
21148;SDS011;10732;51.472;6.466;2024-02-21T07:37:50;17.85;;;8.35;;
21148;SDS011;10732;51.472;6.466;2024-02-21T07:40:16;15.68;;;7.82;;
21148;SDS011;10732;51.472;6.466;2024-02-21T07:42:42;17.38;;;8.05;;
21148;SDS011;10732;51.472;6.466;2024-02-21T07:45:08;18.27;;;7.65;;
21148;SDS011;10732;51.472;6.466;2024-02-21T07:47:35;19.00;;;8.00;;
21148;SDS011;10732;51.472;6.466;2024-02-21T07:50:01;18.35;;;7.50;;
21148;SDS011;10732;51.472;6.466;2024-02-21T07:52:28;13.30;;;6.93;;
21148;SDS011;10732;51.472;6.466;2024-02-21T07:54:53;13.43;;;6.95;;
21148;SDS011;10732;51.472;6.466;2024-02-21T07:57:19;16.15;;;7.40;;
21148;SDS011;10732;51.472;6.466;2024-02-21T07:59:44;15.35;;;6.90;;
21148;SDS011;10732;51.472;6.466;2024-02-21T08:02:12;13.60;;;6.90;;
21148;SDS011;10732;51.472;6.466;2024-02-21T08:04:41;12.02;;;6.30;;
21148;SDS011;10732;51.472;6.466;2024-02-21T08:07:07;13.63;;;6.78;;
21148;SDS011;10732;51.472;6.466;2024-02-21T08:09:34;17.10;;;6.97;;
21148;SDS011;10732;51.472;6.466;2024-02-21T08:12:00;12.90;;;5.75;;
21148;SDS011;10732;51.472;6.466;2024-02-21T08:14:25;12.90;;;6.38;;
21148;SDS011;10732;51.472;6.466;2024-02-21T08:16:51;15.05;;;6.38;;
21148;SDS011;10732;51.472;6.466;2024-02-21T08:19:20;13.05;;;5.88;;
21148;SDS011;10732;51.472;6.466;2024-02-21T08:21:46;12.85;;;5.72;;
21148;SDS011;10732;51.472;6.466;2024-02-21T08:24:14;14.45;;;5.68;;
21148;SDS011;10732;51.472;6.466;2024-02-21T08:26:40;12.60;;;5.72;;
21148;SDS011;10732;51.472;6.466;2024-02-21T08:29:06;11.60;;;5.53;;
21148;SDS011;10732;51.472;6.466;2024-02-21T08:31:32;13.57;;;5.57;;
21148;SDS011;10732;51.472;6.466;2024-02-21T08:33:59;14.80;;;6.32;;
21148;SDS011;10732;51.472;6.466;2024-02-21T08:36:31;11.82;;;6.15;;
21148;SDS011;10732;51.472;6.466;2024-02-21T08:38:58;13.10;;;5.97;;
21148;SDS011;10732;51.472;6.466;2024-02-21T08:41:24;12.50;;;5.78;;
21148;SDS011;10732;51.472;6.466;2024-02-21T08:43:53;12.60;;;5.90;;
21148;SDS011;10732;51.472;6.466;2024-02-21T08:46:19;12.57;;;6.45;;
21148;SDS011;10732;51.472;6.466;2024-02-21T08:48:46;14.27;;;6.28;;
21148;SDS011;10732;51.472;6.466;2024-02-21T08:51:12;14.20;;;6.22;;
21148;SDS011;10732;51.472;6.466;2024-02-21T08:53:38;12.00;;;5.88;;
21148;SDS011;10732;51.472;6.466;2024-02-21T08:56:04;12.73;;;5.93;;
21148;SDS011;10732;51.472;6.466;2024-02-21T08:58:30;16.23;;;6.53;;
21148;SDS011;10732;51.472;6.466;2024-02-21T09:00:56;15.00;;;6.60;;
21148;SDS011;10732;51.472;6.466;2024-02-21T09:03:22;14.30;;;6.10;;
21148;SDS011;10732;51.472;6.466;2024-02-21T09:05:48;14.25;;;6.10;;
21148;SDS011;10732;51.472;6.466;2024-02-21T09:08:13;15.30;;;5.70;;
21148;SDS011;10732;51.472;6.466;2024-02-21T09:10:39;14.15;;;6.32;;
21148;SDS011;10732;51.472;6.466;2024-02-21T09:13:05;16.70;;;6.32;;
21148;SDS011;10732;51.472;6.466;2024-02-21T09:15:32;12.75;;;6.00;;
21148;SDS011;10732;51.472;6.466;2024-02-21T09:17:58;9.70;;;5.35;;
21148;SDS011;10732;51.472;6.466;2024-02-21T09:20:24;13.43;;;5.47;;
21148;SDS011;10732;51.472;6.466;2024-02-21T09:22:49;9.60;;;5.50;;
21148;SDS011;10732;51.472;6.466;2024-02-21T09:25:15;12.90;;;5.80;;
21148;SDS011;10732;51.472;6.466;2024-02-21T09:27:41;10.48;;;5.50;;
21148;SDS011;10732;51.472;6.466;2024-02-21T09:30:09;13.18;;;6.05;;
21148;SDS011;10732;51.472;6.466;2024-02-21T09:32:34;12.65;;;6.00;;
21148;SDS011;10732;51.472;6.466;2024-02-21T09:35:01;11.57;;;5.78;;
21148;SDS011;10732;51.472;6.466;2024-02-21T09:37:26;14.05;;;5.93;;
21148;SDS011;10732;51.472;6.466;2024-02-21T09:39:52;13.95;;;5.88;;
21148;SDS011;10732;51.472;6.466;2024-02-21T09:42:19;10.43;;;5.50;;
21148;SDS011;10732;51.472;6.466;2024-02-21T09:44:46;12.85;;;6.30;;
21148;SDS011;10732;51.472;6.466;2024-02-21T09:47:16;14.40;;;5.60;;
21148;SDS011;10732;51.472;6.466;2024-02-21T09:49:44;13.45;;;5.78;;
21148;SDS011;10732;51.472;6.466;2024-02-21T09:52:10;11.98;;;5.35;;
21148;SDS011;10732;51.472;6.466;2024-02-21T09:54:39;12.02;;;5.20;;
21148;SDS011;10732;51.472;6.466;2024-02-21T09:57:07;11.25;;;5.15;;
21148;SDS011;10732;51.472;6.466;2024-02-21T09:59:33;12.23;;;5.63;;
21148;SDS011;10732;51.472;6.466;2024-02-21T10:01:58;11.82;;;5.38;;
21148;SDS011;10732;51.472;6.466;2024-02-21T10:04:27;10.38;;;5.35;;
21148;SDS011;10732;51.472;6.466;2024-02-21T10:06:54;15.60;;;5.63;;
21148;SDS011;10732;51.472;6.466;2024-02-21T10:09:20;13.48;;;5.55;;
21148;SDS011;10732;51.472;6.466;2024-02-21T10:11:52;11.35;;;5.50;;
21148;SDS011;10732;51.472;6.466;2024-02-21T10:14:19;9.02;;;5.30;;
21148;SDS011;10732;51.472;6.466;2024-02-21T10:16:46;11.25;;;5.53;;
21148;SDS011;10732;51.472;6.466;2024-02-21T10:19:19;9.30;;;5.03;;
21148;SDS011;10732;51.472;6.466;2024-02-21T10:24:33;12.98;;;4.30;;
21148;SDS011;10732;51.472;6.466;2024-02-21T10:27:03;9.75;;;4.60;;
21148;SDS011;10732;51.472;6.466;2024-02-21T10:29:33;9.93;;;4.45;;
21148;SDS011;10732;51.472;6.466;2024-02-21T10:32:11;11.30;;;4.32;;
21148;SDS011;10732;51.472;6.466;2024-02-21T10:34:38;10.57;;;5.07;;
21148;SDS011;10732;51.472;6.466;2024-02-21T10:37:06;7.45;;;4.18;;
21148;SDS011;10732;51.472;6.466;2024-02-21T10:39:36;9.50;;;4.00;;
21148;SDS011;10732;51.472;6.466;2024-02-21T10:42:04;7.78;;;3.90;;
21148;SDS011;10732;51.472;6.466;2024-02-21T10:44:34;9.57;;;4.10;;
21148;SDS011;10732;51.472;6.466;2024-02-21T10:47:07;9.65;;;3.95;;
21148;SDS011;10732;51.472;6.466;2024-02-21T10:49:35;9.02;;;4.00;;
21148;SDS011;10732;51.472;6.466;2024-02-21T10:55:03;11.40;;;4.22;;
21148;SDS011;10732;51.472;6.466;2024-02-21T10:57:33;9.80;;;4.15;;
21148;SDS011;10732;51.472;6.466;2024-02-21T11:00:00;10.68;;;3.88;;
21148;SDS011;10732;51.472;6.466;2024-02-21T11:02:28;6.43;;;3.17;;
21148;SDS011;10732;51.472;6.466;2024-02-21T11:04:56;7.35;;;3.63;;
21148;SDS011;10732;51.472;6.466;2024-02-21T11:07:22;7.50;;;3.58;;
21148;SDS011;10732;51.472;6.466;2024-02-21T11:09:52;7.40;;;3.67;;
21148;SDS011;10732;51.472;6.466;2024-02-21T11:12:20;9.95;;;4.10;;
21148;SDS011;10732;51.472;6.466;2024-02-21T11:14:46;10.55;;;3.83;;
21148;SDS011;10732;51.472;6.466;2024-02-21T11:17:16;8.55;;;3.78;;
21148;SDS011;10732;51.472;6.466;2024-02-21T11:19:42;9.25;;;3.75;;
21148;SDS011;10732;51.472;6.466;2024-02-21T11:22:14;8.13;;;3.65;;
21148;SDS011;10732;51.472;6.466;2024-02-21T11:24:41;8.23;;;4.10;;
21148;SDS011;10732;51.472;6.466;2024-02-21T11:27:20;10.90;;;4.50;;
21148;SDS011;10732;51.472;6.466;2024-02-21T11:29:49;10.15;;;3.90;;
21148;SDS011;10732;51.472;6.466;2024-02-21T11:32:20;9.68;;;3.58;;
21148;SDS011;10732;51.472;6.466;2024-02-21T11:34:56;8.85;;;4.03;;
21148;SDS011;10732;51.472;6.466;2024-02-21T11:37:27;10.23;;;4.15;;
21148;SDS011;10732;51.472;6.466;2024-02-21T11:40:00;8.60;;;3.90;;
21148;SDS011;10732;51.472;6.466;2024-02-21T11:42:26;12.02;;;4.20;;
21148;SDS011;10732;51.472;6.466;2024-02-21T11:44:52;12.20;;;3.95;;
21148;SDS011;10732;51.472;6.466;2024-02-21T11:47:18;10.18;;;3.78;;
21148;SDS011;10732;51.472;6.466;2024-02-21T11:49:47;10.18;;;4.00;;
21148;SDS011;10732;51.472;6.466;2024-02-21T11:52:15;9.45;;;3.92;;
21148;SDS011;10732;51.472;6.466;2024-02-21T11:54:41;8.63;;;3.70;;
21148;SDS011;10732;51.472;6.466;2024-02-21T11:57:07;10.80;;;4.68;;
21148;SDS011;10732;51.472;6.466;2024-02-21T11:59:33;12.40;;;4.07;;
21148;SDS011;10732;51.472;6.466;2024-02-21T12:02:00;6.47;;;3.75;;
21148;SDS011;10732;51.472;6.466;2024-02-21T12:04:26;8.48;;;3.45;;
21148;SDS011;10732;51.472;6.466;2024-02-21T12:06:55;10.45;;;3.80;;
21148;SDS011;10732;51.472;6.466;2024-02-21T12:09:22;8.00;;;3.72;;
21148;SDS011;10732;51.472;6.466;2024-02-21T12:12:02;8.32;;;3.60;;
21148;SDS011;10732;51.472;6.466;2024-02-21T12:14:29;8.52;;;3.72;;
21148;SDS011;10732;51.472;6.466;2024-02-21T12:16:56;10.05;;;4.18;;
21148;SDS011;10732;51.472;6.466;2024-02-21T12:19:22;8.68;;;4.28;;
21148;SDS011;10732;51.472;6.466;2024-02-21T12:21:48;7.00;;;3.72;;
21148;SDS011;10732;51.472;6.466;2024-02-21T12:24:22;9.20;;;3.65;;
21148;SDS011;10732;51.472;6.466;2024-02-21T12:26:50;6.22;;;3.38;;
21148;SDS011;10732;51.472;6.466;2024-02-21T12:29:17;10.05;;;3.42;;
21148;SDS011;10732;51.472;6.466;2024-02-21T12:31:43;8.38;;;3.35;;
21148;SDS011;10732;51.472;6.466;2024-02-21T12:34:09;9.05;;;4.03;;
21148;SDS011;10732;51.472;6.466;2024-02-21T12:36:36;8.10;;;4.07;;
21148;SDS011;10732;51.472;6.466;2024-02-21T12:39:12;9.57;;;3.60;;
21148;SDS011;10732;51.472;6.466;2024-02-21T12:41:38;11.05;;;3.80;;
21148;SDS011;10732;51.472;6.466;2024-02-21T12:44:08;8.98;;;3.40;;
21148;SDS011;10732;51.472;6.466;2024-02-21T12:46:36;8.88;;;3.65;;
21148;SDS011;10732;51.472;6.466;2024-02-21T12:49:03;7.72;;;3.53;;
21148;SDS011;10732;51.472;6.466;2024-02-21T12:51:29;8.10;;;3.55;;
21148;SDS011;10732;51.472;6.466;2024-02-21T12:53:56;7.47;;;3.63;;
21148;SDS011;10732;51.472;6.466;2024-02-21T12:56:22;12.63;;;3.67;;
21148;SDS011;10732;51.472;6.466;2024-02-21T12:58:47;8.15;;;3.17;;
21148;SDS011;10732;51.472;6.466;2024-02-21T13:01:13;7.05;;;3.55;;
21148;SDS011;10732;51.472;6.466;2024-02-21T13:03:38;6.88;;;2.85;;
21148;SDS011;10732;51.472;6.466;2024-02-21T13:06:05;8.65;;;3.45;;
21148;SDS011;10732;51.472;6.466;2024-02-21T13:08:32;9.18;;;3.30;;
21148;SDS011;10732;51.472;6.466;2024-02-21T13:10:59;8.07;;;3.15;;
21148;SDS011;10732;51.472;6.466;2024-02-21T13:13:25;12.52;;;3.70;;
21148;SDS011;10732;51.472;6.466;2024-02-21T13:15:50;7.18;;;3.25;;
21148;SDS011;10732;51.472;6.466;2024-02-21T13:18:16;8.65;;;3.50;;
21148;SDS011;10732;51.472;6.466;2024-02-21T13:20:41;6.40;;;3.40;;
21148;SDS011;10732;51.472;6.466;2024-02-21T13:23:07;6.88;;;3.22;;
21148;SDS011;10732;51.472;6.466;2024-02-21T13:25:33;9.30;;;3.30;;
21148;SDS011;10732;51.472;6.466;2024-02-21T13:27:58;8.55;;;3.33;;
21148;SDS011;10732;51.472;6.466;2024-02-21T13:30:24;8.13;;;3.35;;
21148;SDS011;10732;51.472;6.466;2024-02-21T13:32:50;8.18;;;3.58;;
21148;SDS011;10732;51.472;6.466;2024-02-21T13:35:16;8.77;;;3.60;;
21148;SDS011;10732;51.472;6.466;2024-02-21T13:37:42;10.43;;;3.30;;
21148;SDS011;10732;51.472;6.466;2024-02-21T13:40:08;6.95;;;3.00;;
21148;SDS011;10732;51.472;6.466;2024-02-21T13:42:34;7.90;;;3.38;;
21148;SDS011;10732;51.472;6.466;2024-02-21T13:45:01;9.18;;;3.35;;
21148;SDS011;10732;51.472;6.466;2024-02-21T13:47:26;8.15;;;3.40;;
21148;SDS011;10732;51.472;6.466;2024-02-21T13:49:52;8.98;;;3.42;;
21148;SDS011;10732;51.472;6.466;2024-02-21T13:52:18;9.82;;;3.75;;
21148;SDS011;10732;51.472;6.466;2024-02-21T13:54:46;9.95;;;3.72;;
21148;SDS011;10732;51.472;6.466;2024-02-21T13:57:11;9.07;;;3.22;;
21148;SDS011;10732;51.472;6.466;2024-02-21T13:59:37;8.73;;;4.15;;
21148;SDS011;10732;51.472;6.466;2024-02-21T14:02:04;10.50;;;4.63;;
21148;SDS011;10732;51.472;6.466;2024-02-21T14:04:32;11.02;;;4.32;;
21148;SDS011;10732;51.472;6.466;2024-02-21T14:06:57;7.38;;;3.85;;
21148;SDS011;10732;51.472;6.466;2024-02-21T14:09:23;8.90;;;3.75;;
21148;SDS011;10732;51.472;6.466;2024-02-21T14:11:48;9.73;;;3.58;;
21148;SDS011;10732;51.472;6.466;2024-02-21T14:14:14;9.02;;;3.70;;
21148;SDS011;10732;51.472;6.466;2024-02-21T14:16:40;7.28;;;3.15;;
21148;SDS011;10732;51.472;6.466;2024-02-21T14:19:06;9.25;;;3.20;;
21148;SDS011;10732;51.472;6.466;2024-02-21T14:21:33;7.22;;;3.80;;
21148;SDS011;10732;51.472;6.466;2024-02-21T14:24:02;8.50;;;3.30;;
21148;SDS011;10732;51.472;6.466;2024-02-21T14:26:31;11.38;;;4.20;;
21148;SDS011;10732;51.472;6.466;2024-02-21T14:28:57;7.68;;;3.67;;
21148;SDS011;10732;51.472;6.466;2024-02-21T14:31:22;10.55;;;3.67;;
21148;SDS011;10732;51.472;6.466;2024-02-21T14:33:48;8.48;;;3.58;;